createdAt,value
2022-10-08T00:01:24.279Z,13.90
2022-10-08T00:03:53.823Z,14.15
2022-10-08T00:06:23.915Z,10.80
2022-10-08T00:08:54.581Z,11.27
2022-10-08T00:11:29.146Z,10.30
2022-10-08T00:13:57.308Z,10.43
2022-10-08T00:16:37.778Z,18.17
2022-10-08T00:19:09.248Z,15.60
2022-10-08T00:21:39.478Z,23.03
2022-10-08T00:24:09.676Z,17.13
2022-10-08T00:26:43.341Z,18.57
2022-10-08T00:29:14.659Z,18.27
2022-10-08T00:31:44.972Z,17.23
2022-10-08T00:34:17.056Z,13.97
2022-10-08T00:36:45.091Z,16.90
2022-10-08T00:39:16.368Z,13.68
2022-10-08T00:41:46.127Z,12.87
2022-10-08T00:44:53.892Z,15.63
2022-10-08T00:47:30.210Z,13.40
2022-10-08T00:50:02.171Z,10.93
2022-10-08T00:52:35.178Z,12.73
2022-10-08T00:55:06.940Z,13.50
2022-10-08T00:57:36.900Z,19.07
2022-10-08T01:00:09.253Z,16.17
2022-10-08T01:02:36.715Z,11.73
2022-10-08T01:05:06.125Z,9.13
2022-10-08T01:07:36.793Z,10.47
2022-10-08T01:10:11.135Z,10.47
2022-10-08T01:12:56.190Z,10.73
2022-10-08T01:15:53.044Z,15.83
2022-10-08T01:18:48.128Z,11.07
2022-10-08T01:21:40.052Z,13.13
2022-10-08T01:24:22.187Z,12.93
2022-10-08T01:27:00.208Z,11.40
2022-10-08T01:29:30.322Z,11.77
2022-10-08T01:32:07.426Z,11.37
2022-10-08T01:34:41.427Z,7.63
2022-10-08T01:37:13.459Z,11.60
2022-10-08T01:39:44.683Z,16.33
2022-10-08T01:42:13.100Z,11.83
2022-10-08T01:44:47.395Z,8.15
2022-10-08T01:47:23.541Z,8.73
2022-10-08T01:49:58.170Z,7.07
2022-10-08T01:52:37.288Z,7.93
2022-10-08T01:55:14.014Z,12.17
2022-10-08T01:57:42.838Z,11.33
2022-10-08T02:00:13.924Z,11.50
2022-10-08T02:02:43.390Z,13.30
2022-10-08T02:05:12.096Z,13.62
2022-10-08T02:07:43.880Z,19.35
2022-10-08T02:10:15.576Z,34.53
2022-10-08T02:12:44.653Z,31.13
2022-10-08T02:15:19.140Z,23.80
2022-10-08T02:18:21.835Z,57.40
2022-10-08T02:20:56.650Z,28.00
2022-10-08T02:23:37.616Z,25.13
2022-10-08T02:26:13.675Z,23.80
2022-10-08T02:28:50.193Z,13.53
2022-10-08T02:31:26.389Z,12.43
2022-10-08T02:34:02.671Z,14.37
2022-10-08T02:36:38.195Z,12.33
2022-10-08T02:39:06.851Z,12.27
2022-10-08T02:41:49.048Z,28.42
2022-10-08T02:44:40.651Z,25.40
2022-10-08T02:47:13.332Z,19.33
2022-10-08T02:49:45.478Z,13.63
2022-10-08T02:52:14.787Z,47.70
2022-10-08T02:54:45.150Z,27.60
2022-10-08T02:57:26.368Z,14.87
2022-10-08T02:59:54.586Z,14.90
2022-10-08T03:02:56.037Z,19.77
2022-10-08T03:05:24.347Z,14.23
2022-10-08T03:07:55.378Z,11.50
2022-10-08T03:10:26.373Z,12.63
2022-10-08T03:13:01.513Z,16.00
2022-10-08T03:15:31.986Z,16.50
2022-10-08T03:18:03.137Z,18.33
2022-10-08T03:20:32.068Z,13.90
2022-10-08T03:25:30.520Z,12.03
2022-10-08T03:27:58.019Z,10.83
2022-10-08T03:30:26.406Z,23.60
2022-10-08T03:32:53.899Z,11.70
2022-10-08T03:35:21.233Z,13.63
2022-10-08T03:37:52.175Z,16.12
2022-10-08T03:40:24.046Z,12.27
2022-10-08T03:42:51.876Z,10.63
2022-10-08T03:45:19.311Z,15.80
2022-10-08T03:47:52.228Z,11.30
2022-10-08T03:50:21.834Z,10.73
2022-10-08T03:52:49.556Z,12.98
2022-10-08T03:55:18.503Z,13.40
2022-10-08T03:57:46.692Z,11.33
2022-10-08T04:00:14.495Z,11.87
2022-10-08T04:02:42.653Z,11.43
2022-10-08T04:05:10.156Z,10.67
2022-10-08T04:07:38.034Z,10.67
2022-10-08T04:10:06.728Z,22.57
2022-10-08T04:12:34.364Z,15.70
2022-10-08T04:15:02.110Z,15.43
2022-10-08T04:17:30.752Z,12.57
2022-10-08T04:19:58.588Z,10.87
2022-10-08T04:22:26.005Z,12.23
2022-10-08T04:24:53.948Z,9.97
2022-10-08T04:27:22.078Z,9.13
2022-10-08T04:29:49.800Z,21.03
2022-10-08T04:32:18.503Z,11.47
2022-10-08T04:34:46.272Z,11.75
2022-10-08T04:37:13.835Z,9.93
2022-10-08T04:39:41.665Z,12.10
2022-10-08T04:42:09.050Z,9.80
2022-10-08T04:44:36.453Z,14.60
2022-10-08T04:47:04.167Z,14.27
2022-10-08T04:49:31.665Z,13.43
2022-10-08T04:51:59.696Z,10.87
2022-10-08T04:54:28.212Z,9.93
2022-10-08T04:56:55.796Z,9.60
2022-10-08T04:59:23.229Z,11.10
2022-10-08T05:01:53.128Z,9.30
2022-10-08T05:04:20.595Z,9.50
2022-10-08T05:06:48.993Z,6.43
2022-10-08T05:09:17.875Z,9.63
2022-10-08T05:11:46.009Z,7.90
2022-10-08T05:14:13.561Z,8.63
2022-10-08T05:16:41.370Z,6.97
2022-10-08T05:19:09.094Z,6.90
2022-10-08T05:21:36.878Z,9.07
2022-10-08T05:24:08.183Z,7.77
2022-10-08T05:26:57.616Z,11.63
2022-10-08T05:29:29.787Z,6.97
2022-10-08T05:31:57.802Z,8.20
2022-10-08T05:34:25.657Z,9.55
2022-10-08T05:36:54.330Z,9.18
2022-10-08T05:39:22.561Z,11.17
2022-10-08T05:41:50.320Z,13.80
2022-10-08T05:44:18.970Z,10.50
2022-10-08T05:46:47.070Z,14.23
2022-10-08T05:49:20.923Z,12.63
2022-10-08T05:51:50.901Z,11.27
2022-10-08T05:54:18.934Z,20.43
2022-10-08T05:56:46.769Z,25.23
2022-10-08T05:59:21.942Z,21.33
2022-10-08T06:01:52.591Z,22.23
2022-10-08T06:04:21.419Z,18.27
2022-10-08T06:06:48.965Z,16.73
2022-10-08T06:09:19.599Z,49.37
2022-10-08T06:11:47.941Z,21.17
2022-10-08T06:14:20.814Z,17.70
2022-10-08T06:16:48.715Z,23.83
2022-10-08T06:19:16.786Z,33.10
2022-10-08T06:21:44.595Z,27.37
2022-10-08T06:24:13.367Z,21.10
2022-10-08T06:26:44.234Z,18.98
2022-10-08T06:29:15.759Z,17.77
2022-10-08T06:31:43.650Z,32.17
2022-10-08T06:34:12.124Z,18.15
2022-10-08T06:36:39.983Z,16.70
2022-10-08T06:39:11.767Z,21.97
2022-10-08T06:41:40.011Z,26.33
2022-10-08T06:44:10.819Z,28.50
2022-10-08T06:46:38.574Z,20.03
2022-10-08T06:49:07.228Z,19.87
2022-10-08T06:51:36.406Z,21.33
2022-10-08T06:54:07.771Z,25.43
2022-10-08T06:56:38.849Z,17.83
2022-10-08T06:59:07.033Z,19.90
2022-10-08T07:01:36.069Z,19.02
2022-10-08T07:04:07.279Z,16.83
2022-10-08T07:06:35.726Z,21.37
2022-10-08T07:09:04.195Z,19.73
2022-10-08T07:11:33.783Z,20.70
2022-10-08T07:16:30.303Z,17.83
2022-10-08T07:19:01.372Z,14.55
2022-10-08T07:21:29.917Z,10.37
2022-10-08T07:24:00.600Z,12.45
2022-10-08T07:26:32.549Z,8.80
2022-10-08T07:29:03.517Z,6.93
2022-10-08T07:31:35.460Z,9.30
2022-10-08T07:34:08.779Z,6.97
2022-10-08T07:36:36.729Z,12.77
2022-10-08T07:39:09.455Z,9.40
2022-10-08T07:41:37.290Z,10.30
2022-10-08T07:44:06.908Z,10.93
2022-10-08T07:46:37.978Z,7.32
2022-10-08T07:49:05.787Z,8.53
2022-10-08T07:51:34.954Z,9.27
2022-10-08T07:56:33.315Z,5.63
2022-10-08T07:59:02.409Z,8.37
2022-10-08T08:01:31.829Z,11.90
2022-10-08T08:04:02.514Z,7.37
2022-10-08T08:06:32.068Z,34.23
2022-10-08T08:09:01.264Z,13.27
2022-10-08T08:11:29.614Z,11.88
2022-10-08T08:13:57.325Z,9.95
2022-10-08T08:16:27.229Z,10.03
2022-10-08T08:18:59.878Z,12.90
2022-10-08T08:21:33.790Z,7.90
2022-10-08T08:24:13.583Z,8.23
2022-10-08T08:26:43.409Z,9.30
2022-10-08T08:29:18.989Z,13.00
2022-10-08T08:31:48.974Z,9.93
2022-10-08T08:34:24.791Z,38.03
2022-10-08T08:36:54.413Z,9.93
2022-10-08T08:39:24.270Z,11.55
2022-10-08T08:42:20.964Z,5.32
2022-10-08T08:45:44.965Z,9.32
2022-10-08T08:48:22.121Z,14.73
2022-10-08T08:50:53.741Z,10.15
2022-10-08T08:53:23.079Z,6.57
2022-10-08T08:56:00.298Z,11.20
2022-10-08T08:59:03.865Z,5.47
2022-10-08T09:01:38.287Z,9.07
2022-10-08T09:04:19.647Z,6.10
2022-10-08T09:06:51.036Z,6.47
2022-10-08T09:09:32.367Z,6.22
2022-10-08T09:12:00.352Z,9.80
2022-10-08T09:14:42.903Z,5.07
2022-10-08T09:17:22.181Z,11.90
2022-10-08T09:19:52.017Z,7.45
2022-10-08T09:22:45.953Z,4.78
2022-10-08T09:25:16.494Z,5.22
2022-10-08T09:27:55.888Z,6.03
2022-10-08T09:30:29.554Z,12.93
2022-10-08T09:33:00.550Z,5.07
2022-10-08T09:35:28.684Z,4.62
2022-10-08T09:37:59.002Z,7.75
2022-10-08T09:40:30.498Z,4.80
2022-10-08T09:43:13.308Z,8.05
2022-10-08T09:45:45.665Z,8.20
2022-10-08T09:48:20.882Z,9.60
2022-10-08T09:51:14.461Z,7.20
2022-10-08T09:53:59.230Z,9.18
2022-10-08T09:56:31.370Z,5.40
2022-10-08T09:59:02.871Z,6.57
2022-10-08T10:01:31.999Z,7.57
2022-10-08T10:04:02.606Z,7.72
2022-10-08T10:06:35.367Z,6.85
2022-10-08T10:09:04.148Z,10.30
2022-10-08T10:11:39.521Z,5.78
2022-10-08T10:14:33.378Z,8.80
2022-10-08T10:17:08.614Z,5.55
2022-10-08T10:20:21.432Z,4.82
2022-10-08T10:22:59.817Z,9.25
2022-10-08T10:25:37.940Z,4.80
2022-10-08T10:28:17.548Z,9.70
2022-10-08T10:31:29.051Z,5.62
2022-10-08T10:34:12.310Z,9.30
2022-10-08T10:36:59.106Z,5.22
2022-10-08T10:39:39.428Z,5.30
2022-10-08T10:42:41.693Z,38.58
2022-10-08T10:45:15.179Z,9.77
2022-10-08T10:47:44.064Z,8.63
2022-10-08T10:50:16.612Z,8.43
2022-10-08T10:53:06.137Z,8.10
2022-10-08T10:56:26.332Z,10.57
2022-10-08T10:59:13.770Z,8.20
2022-10-08T11:01:47.505Z,5.07
2022-10-08T11:04:53.248Z,6.05
2022-10-08T11:07:43.238Z,9.90
2022-10-08T11:10:23.482Z,8.80
2022-10-08T11:12:54.006Z,9.95
2022-10-08T11:15:38.401Z,27.65
2022-10-08T11:18:15.364Z,11.20
2022-10-08T11:20:57.181Z,6.82
2022-10-08T11:24:03.905Z,4.47
2022-10-08T11:26:37.651Z,5.72
2022-10-08T11:29:36.187Z,5.37
2022-10-08T11:32:07.257Z,6.18
2022-10-08T11:34:37.280Z,7.20
2022-10-08T11:37:20.904Z,3.75
2022-10-08T11:40:21.594Z,5.00
2022-10-08T11:43:15.602Z,9.93
2022-10-08T11:45:46.286Z,4.70
2022-10-08T11:48:31.792Z,5.80
2022-10-08T11:51:37.519Z,12.20
2022-10-08T11:54:09.941Z,7.22
2022-10-08T11:56:41.179Z,4.90
2022-10-08T11:59:31.868Z,3.75
2022-10-08T12:02:02.780Z,3.47
2022-10-08T12:04:38.164Z,7.10
2022-10-08T12:07:08.422Z,3.70
2022-10-08T12:10:07.160Z,5.60
2022-10-08T12:12:50.838Z,6.32
2022-10-08T12:15:25.093Z,2.80
2022-10-08T12:17:55.301Z,3.20
2022-10-08T12:20:30.676Z,4.37
2022-10-08T12:23:23.273Z,6.25
2022-10-08T12:26:03.469Z,7.12
2022-10-08T12:28:35.802Z,8.13
2022-10-08T12:31:26.048Z,7.20
2022-10-08T12:34:14.677Z,5.93
2022-10-08T12:36:52.106Z,9.98
2022-10-08T12:39:35.184Z,3.85
2022-10-08T12:42:28.315Z,7.25
2022-10-08T12:45:17.731Z,8.80
2022-10-08T12:48:09.771Z,12.18
2022-10-08T12:50:56.877Z,10.68
2022-10-08T12:53:24.972Z,5.53
2022-10-08T12:55:56.775Z,5.37
2022-10-08T12:58:31.751Z,5.62
2022-10-08T13:01:04.214Z,5.30
2022-10-08T13:03:32.003Z,4.45
2022-10-08T13:06:16.826Z,4.90
2022-10-08T13:08:45.148Z,8.00
2022-10-08T13:11:15.842Z,8.38
2022-10-08T13:13:49.192Z,7.62
2022-10-08T13:16:23.050Z,7.45
2022-10-08T13:18:57.616Z,6.20
2022-10-08T13:21:26.746Z,6.53
2022-10-08T13:23:54.794Z,6.68
2022-10-08T13:26:44.422Z,5.45
2022-10-08T13:29:22.088Z,9.05
2022-10-08T13:31:57.963Z,7.40
2022-10-08T13:34:30.369Z,9.82
2022-10-08T13:37:01.018Z,11.40
2022-10-08T13:39:38.189Z,8.90
2022-10-08T13:42:15.170Z,10.55
2022-10-08T13:44:44.152Z,8.75
2022-10-08T13:49:41.200Z,10.98
2022-10-08T13:52:16.161Z,15.30
2022-10-08T13:54:45.102Z,13.62
2022-10-08T13:57:13.997Z,12.73
2022-10-08T14:02:13.245Z,8.60
2022-10-08T14:04:41.593Z,12.90
2022-10-08T14:07:31.758Z,14.87
2022-10-08T14:10:02.060Z,15.93
2022-10-08T14:12:33.228Z,6.25
2022-10-08T14:15:02.043Z,7.93
2022-10-08T14:17:30.025Z,3.95
2022-10-08T14:19:57.560Z,9.73
2022-10-08T14:22:26.025Z,15.75
2022-10-08T14:24:54.085Z,22.23
2022-10-08T14:27:21.900Z,22.55
2022-10-08T14:32:17.980Z,15.52
2022-10-08T14:34:45.474Z,9.75
2022-10-08T14:37:13.332Z,13.73
2022-10-08T14:39:41.457Z,23.55
2022-10-08T14:42:08.856Z,17.08
2022-10-08T14:44:36.938Z,10.20
2022-10-08T14:47:04.326Z,12.10
2022-10-08T14:49:32.076Z,6.93
2022-10-08T14:52:00.372Z,6.97
2022-10-08T14:54:28.352Z,75.40
2022-10-08T14:56:55.704Z,37.25
2022-10-08T14:59:24.665Z,16.83
2022-10-08T15:01:51.960Z,11.85
2022-10-08T15:04:19.830Z,15.77
2022-10-08T15:09:16.959Z,13.95
2022-10-08T15:11:45.273Z,40.85
2022-10-08T15:14:14.642Z,24.45
2022-10-08T15:16:42.836Z,45.33
2022-10-08T15:21:38.580Z,86.07
2022-10-08T15:24:06.272Z,51.88
2022-10-08T15:26:33.675Z,76.70
2022-10-08T15:29:02.156Z,61.80
2022-10-08T15:31:29.863Z,62.15
2022-10-08T15:33:59.818Z,90.57
2022-10-08T15:36:37.343Z,79.15
2022-10-08T15:39:08.123Z,66.12
2022-10-08T15:41:38.055Z,79.82
2022-10-08T15:44:23.451Z,60.10
2022-10-08T15:47:12.502Z,46.97
2022-10-08T15:49:42.408Z,42.38
2022-10-08T15:52:21.489Z,40.63
2022-10-08T15:57:18.412Z,28.40
2022-10-08T15:59:46.393Z,55.38
2022-10-08T16:02:17.404Z,47.53
2022-10-08T16:04:48.016Z,28.15
2022-10-08T16:07:17.241Z,33.27
2022-10-08T16:09:45.147Z,31.30
2022-10-08T16:12:12.970Z,40.42
2022-10-08T16:14:40.915Z,39.47
2022-10-08T16:17:08.400Z,42.27
2022-10-08T16:19:36.560Z,48.10
2022-10-08T16:22:04.554Z,56.57
2022-10-08T16:24:31.950Z,51.87
2022-10-08T16:26:59.667Z,45.27
2022-10-08T16:29:27.055Z,53.60
2022-10-08T16:31:54.799Z,45.63
2022-10-08T16:34:24.660Z,41.22
2022-10-08T16:36:52.552Z,39.23
2022-10-08T16:39:21.748Z,42.43
2022-10-08T16:41:50.237Z,50.70
2022-10-08T16:44:20.908Z,41.63
2022-10-08T16:46:51.714Z,38.70
2022-10-08T16:49:25.449Z,37.00
2022-10-08T16:51:56.168Z,41.67
2022-10-08T16:54:24.142Z,32.90
2022-10-08T16:56:51.942Z,29.03
2022-10-08T16:59:22.487Z,39.13
2022-10-08T17:01:53.067Z,41.83
2022-10-08T17:04:25.059Z,40.63
2022-10-08T17:06:53.047Z,36.63
2022-10-08T17:09:21.071Z,71.25
2022-10-08T17:11:48.932Z,77.13
2022-10-08T17:14:16.375Z,49.50
2022-10-08T17:16:45.260Z,51.27
2022-10-08T17:19:13.040Z,52.40
2022-10-08T17:21:40.614Z,60.00
2022-10-08T17:24:10.321Z,47.20
2022-10-08T17:26:40.741Z,50.83
2022-10-08T17:29:11.669Z,46.80
2022-10-08T17:31:39.602Z,44.00
2022-10-08T17:34:07.533Z,118.13
2022-10-08T17:36:38.499Z,171.95
2022-10-08T17:39:08.674Z,49.43
2022-10-08T17:41:42.260Z,51.80
2022-10-08T17:44:11.152Z,45.70
2022-10-08T17:46:45.922Z,30.27
2022-10-08T17:49:21.930Z,26.23
2022-10-08T17:51:51.612Z,19.23
2022-10-08T17:54:22.822Z,18.80
2022-10-08T17:56:53.283Z,18.17
2022-10-08T17:59:24.305Z,19.40
2022-10-08T18:01:55.479Z,31.83
2022-10-08T18:04:25.486Z,46.47
2022-10-08T18:06:52.993Z,34.63
2022-10-08T18:09:25.161Z,35.77
2022-10-08T18:11:54.023Z,28.33
2022-10-08T18:14:22.598Z,27.55
2022-10-08T18:16:50.350Z,38.22
2022-10-08T18:19:18.646Z,66.67
2022-10-08T18:21:46.481Z,42.17
2022-10-08T18:24:18.133Z,52.25
2022-10-08T18:26:46.933Z,52.37
2022-10-08T18:29:16.345Z,52.30
2022-10-08T18:31:46.711Z,47.28
2022-10-08T18:34:17.319Z,66.63
2022-10-08T18:36:46.395Z,49.77
2022-10-08T18:39:28.103Z,44.73
2022-10-08T18:41:56.278Z,48.00
2022-10-08T18:44:26.026Z,65.95
2022-10-08T18:46:53.723Z,76.00
2022-10-08T18:49:30.602Z,71.77
2022-10-08T18:52:00.173Z,54.07
2022-10-08T18:54:27.987Z,54.43
2022-10-08T18:56:56.992Z,34.20
2022-10-08T18:59:24.800Z,24.63
2022-10-08T19:01:54.751Z,21.33
2022-10-08T19:04:26.241Z,18.50
2022-10-08T19:06:53.747Z,10.87
2022-10-08T19:09:21.654Z,15.03
2022-10-08T19:11:51.903Z,37.17
2022-10-08T19:14:21.362Z,25.50
2022-10-08T19:16:49.913Z,23.27
2022-10-08T19:19:27.553Z,36.75
2022-10-08T19:21:55.985Z,38.17
2022-10-08T19:24:25.427Z,47.93
2022-10-08T19:26:54.213Z,28.57
2022-10-08T19:31:51.295Z,34.90
2022-10-08T19:34:22.918Z,30.60
2022-10-08T19:36:51.437Z,32.90
2022-10-08T19:39:21.606Z,38.87
2022-10-08T19:41:49.352Z,31.93
2022-10-08T19:44:17.658Z,35.53
2022-10-08T19:46:45.147Z,30.10
2022-10-08T19:49:12.978Z,23.70
2022-10-08T19:51:41.028Z,25.90
2022-10-08T19:54:08.407Z,27.20
2022-10-08T19:56:36.935Z,25.98
2022-10-08T19:59:05.067Z,45.70
2022-10-08T20:01:35.014Z,66.53
2022-10-08T20:04:05.518Z,47.00
2022-10-08T20:06:36.060Z,48.53
2022-10-08T20:09:05.184Z,24.63
2022-10-08T20:11:33.701Z,25.85
2022-10-08T20:14:02.007Z,27.45
2022-10-08T20:16:35.229Z,26.20
2022-10-08T20:19:08.471Z,72.50
2022-10-08T20:21:38.029Z,30.10
2022-10-08T20:26:35.565Z,34.53
2022-10-08T20:29:08.689Z,41.17
2022-10-08T20:31:39.668Z,44.20
2022-10-08T20:34:14.374Z,49.63
2022-10-08T20:36:41.864Z,35.43
2022-10-08T20:39:11.443Z,38.07
2022-10-08T20:44:06.336Z,32.37
2022-10-08T20:46:35.702Z,32.50
2022-10-08T20:49:03.945Z,31.83
2022-10-08T20:51:32.195Z,27.90
2022-10-08T20:54:02.667Z,33.53
2022-10-08T20:56:34.693Z,35.73
2022-10-08T20:59:05.880Z,31.43
2022-10-08T21:01:36.110Z,28.40
2022-10-08T21:04:03.834Z,31.87
2022-10-08T21:06:37.045Z,29.23
2022-10-08T21:09:05.213Z,29.80
2022-10-08T21:11:33.094Z,28.83
2022-10-08T21:14:03.752Z,29.60
2022-10-08T21:16:34.656Z,31.47
2022-10-08T21:19:05.024Z,30.57
2022-10-08T21:21:34.840Z,20.53
2022-10-08T21:24:02.435Z,42.67
2022-10-08T21:26:32.602Z,71.63
2022-10-08T21:29:02.252Z,69.70
2022-10-08T21:31:33.122Z,41.87
2022-10-08T21:34:01.150Z,42.80
2022-10-08T21:36:35.377Z,33.17
2022-10-08T21:39:05.870Z,22.57
2022-10-08T21:41:35.636Z,32.77
2022-10-08T21:44:06.044Z,33.87
2022-10-08T21:46:36.893Z,34.50
2022-10-08T21:49:07.736Z,45.13
2022-10-08T21:51:36.028Z,46.07
2022-10-08T21:54:05.182Z,40.28
2022-10-08T21:56:34.943Z,52.97
2022-10-08T21:59:05.213Z,43.77
2022-10-08T22:01:40.415Z,42.90
2022-10-08T22:04:12.462Z,41.80
2022-10-08T22:06:43.205Z,28.10
2022-10-08T22:09:16.833Z,30.93
2022-10-08T22:11:44.329Z,30.87
2022-10-08T22:14:12.278Z,31.27
2022-10-08T22:16:39.673Z,34.20
2022-10-08T22:19:07.523Z,33.10
2022-10-08T22:21:35.723Z,46.03
2022-10-08T22:24:03.553Z,35.43
2022-10-08T22:26:33.218Z,20.50
2022-10-08T22:29:01.213Z,18.83
2022-10-08T22:31:28.748Z,18.90
2022-10-08T22:33:56.130Z,20.73
2022-10-08T22:36:29.282Z,23.17
2022-10-08T22:38:58.441Z,24.17
2022-10-08T22:41:28.947Z,20.87
2022-10-08T22:43:56.780Z,33.30
2022-10-08T22:46:26.623Z,31.07
2022-10-08T22:48:59.694Z,38.27
2022-10-08T22:51:27.632Z,28.77
2022-10-08T22:53:55.805Z,27.55
2022-10-08T22:56:26.228Z,42.10
2022-10-08T22:58:53.576Z,54.40
2022-10-08T23:01:23.674Z,47.07
2022-10-08T23:03:51.331Z,38.97
2022-10-08T23:06:21.765Z,42.63
2022-10-08T23:08:54.550Z,45.73
2022-10-08T23:11:26.184Z,43.33
2022-10-08T23:13:55.980Z,40.43
2022-10-08T23:16:25.065Z,27.73
2022-10-08T23:18:55.620Z,27.80
2022-10-08T23:21:24.336Z,31.43
2022-10-08T23:23:53.903Z,29.52
2022-10-08T23:26:22.555Z,34.90
2022-10-08T23:28:52.840Z,37.50
2022-10-08T23:31:26.375Z,26.83
2022-10-08T23:33:55.111Z,29.57
